Time;durP1;ratioP1;P1;durP2;ratioP2;P2;SDS_P1;SDS_P2;PMS_P1;PMS_P2;Temp;Humidity;BMP_temperature;BMP_pressure;BME280_temperature;BME280_humidity;BME280_pressure;Samples;Min_cycle;Max_cycle;Signal;HPM_P1;HPM_P2
2022/07/06 00:00:06;;;;;;;7.10;1.42;;;14.50;99.90;;;;;;5092260;28;19920;-65
2022/07/06 00:02:31;;;;;;;7.57;1.73;;;14.60;99.90;;;;;;5092279;28;20047;-64
2022/07/06 00:04:57;;;;;;;4.80;1.17;;;15.00;99.90;;;;;;5092549;28;20059;-66
2022/07/06 00:07:23;;;;;;;;;;;14.80;99.90;;;;;;5092715;28;20083;-65
2022/07/06 00:09:49;;;;;;;8.63;1.23;;;14.90;99.90;;;;;;5092177;28;20288;-65
2022/07/06 00:12:15;;;;;;;4.53;1.77;;;14.90;99.90;;;;;;5092387;28;20048;-64
2022/07/06 00:14:41;;;;;;;;;;;14.70;99.90;;;;;;5092589;28;20491;-64
2022/07/06 00:17:06;;;;;;;6.47;1.70;;;14.90;99.90;;;;;;5092170;28;19928;-66
2022/07/06 00:19:32;;;;;;;;;;;14.70;99.90;;;;;;5092755;28;20040;-66
2022/07/06 00:21:58;;;;;;;6.65;1.30;;;14.80;99.90;;;;;;5092135;28;19920;-66
2022/07/06 00:24:23;;;;;;;;;;;14.60;99.90;;;;;;5092452;28;20086;-67
2022/07/06 00:26:49;;;;;;;3.05;1.13;;;14.70;99.90;;;;;;5092193;28;19974;-64
2022/07/06 00:29:15;;;;;;;;;;;15.10;99.90;;;;;;5092017;28;20052;-64
2022/07/06 00:31:40;;;;;;;5.57;1.40;;;14.70;99.90;;;;;;5092006;28;19923;-64
2022/07/06 00:34:06;;;;;;;;;;;14.50;99.90;;;;;;5092540;28;20131;-64
2022/07/06 00:36:32;;;;;;;10.65;1.98;;;14.70;99.90;;;;;;5092153;28;20675;-64
2022/07/06 00:38:57;;;;;;;;;;;14.80;99.90;;;;;;5092780;28;20059;-67
2022/07/06 00:41:23;;;;;;;8.70;2.55;;;14.80;99.90;;;;;;5091612;28;19920;-65
2022/07/06 00:43:52;;;;;;;7.95;1.15;;;14.70;99.90;;;;;;5092054;28;20051;-65
2022/07/06 00:46:19;;;;;;;4.90;1.30;;;14.80;99.90;;;;;;5092032;28;20051;-66
2022/07/06 00:48:44;;;;;;;4.85;1.20;;;14.90;99.90;;;;;;5091625;28;20569;-65
2022/07/06 00:51:12;;;;;;;6.72;1.33;;;14.70;99.90;;;;;;5091556;28;20079;-66
2022/07/06 00:53:38;;;;;;;5.63;1.45;;;14.80;99.90;;;;;;5091926;28;20055;-65
2022/07/06 00:56:04;;;;;;;7.75;1.45;;;14.80;99.90;;;;;;5091856;28;20079;-65
2022/07/06 00:58:30;;;;;;;5.28;1.15;;;14.80;99.90;;;;;;5091913;28;20127;-64
2022/07/06 01:00:55;;;;;;;;;;;15.10;99.90;;;;;;5092253;28;20048;-65
2022/07/06 01:03:21;;;;;;;9.77;1.50;;;15.10;99.90;;;;;;5091873;28;19970;-64
2022/07/06 01:05:47;;;;;;;5.32;1.10;;;14.70;99.90;;;;;;5091828;28;20105;-64
2022/07/06 01:08:12;;;;;;;;;;;14.30;99.90;;;;;;5092258;28;20052;-64
2022/07/06 01:10:38;;;;;;;6.03;1.33;;;14.80;99.90;;;;;;5091345;28;19924;-64
2022/07/06 01:13:04;;;;;;;6.32;1.25;;;14.60;99.90;;;;;;5092010;28;20126;-65
2022/07/06 01:15:30;;;;;;;6.07;1.10;;;14.60;99.90;;;;;;5091671;28;20051;-65
2022/07/06 01:17:56;;;;;;;9.10;1.95;;;14.40;99.90;;;;;;5091651;28;20048;-65
2022/07/06 01:20:23;;;;;;;;;;;14.20;99.90;;;;;;5092066;28;20131;-65
2022/07/06 01:22:51;;;;;;;5.57;1.50;;;14.70;99.90;;;;;;5091665;28;20015;-65
2022/07/06 01:25:17;;;;;;;5.88;2.17;;;14.40;99.90;;;;;;5091604;28;20122;-64
2022/07/06 01:27:43;;;;;;;8.27;1.45;;;14.50;99.90;;;;;;5091624;28;20043;-66
2022/07/06 01:30:10;;;;;;;;;;;14.60;99.90;;;;;;5091959;28;20060;-65
2022/07/06 01:32:37;;;;;;;5.22;1.60;;;14.50;99.90;;;;;;5091648;28;19924;-65
2022/07/06 01:35:05;;;;;;;5.28;1.13;;;14.90;99.90;;;;;;5091500;28;20055;-65
2022/07/06 01:37:30;;;;;;;6.53;1.50;;;14.50;99.90;;;;;;5091578;28;20059;-65
2022/07/06 01:40:05;;;;;;;11.98;1.67;;;14.50;99.90;;;;;;5091491;28;20047;-66
2022/07/06 01:42:31;;;;;;;4.90;1.20;;;14.50;99.90;;;;;;5091195;28;20412;-63
2022/07/06 01:44:57;;;;;;;;;;;14.30;99.90;;;;;;5091871;28;20079;-65
2022/07/06 01:47:23;;;;;;;5.82;1.10;;;14.30;99.90;;;;;;5091117;28;19986;-65
2022/07/06 01:49:48;;;;;;;;;;;13.90;99.90;;;;;;5091821;28;20059;-66
2022/07/06 01:52:14;;;;;;;7.20;1.50;;;14.10;99.90;;;;;;5091361;28;19924;-65
2022/07/06 01:54:40;;;;;;;;;;;13.90;99.90;;;;;;5094640;28;20044;-64
2022/07/06 01:57:05;;;;;;;7.53;2.08;;;14.30;99.90;;;;;;5094918;28;19927;-65
2022/07/06 01:59:31;;;;;;;5.50;1.30;;;13.90;99.90;;;;;;5094885;28;20130;-65
2022/07/06 02:01:57;;;;;;;;;;;13.80;99.90;;;;;;5095313;28;20056;-65
2022/07/06 02:04:22;;;;;;;5.57;1.33;;;13.80;99.90;;;;;;5094564;28;19973;-66
2022/07/06 02:06:48;;;;;;;;;;;13.80;99.90;;;;;;5093903;28;20055;-65
2022/07/06 02:09:14;;;;;;;5.47;0.98;;;14.00;99.90;;;;;;5094316;28;19931;-66
2022/07/06 02:11:40;;;;;;;;;;;13.80;99.90;;;;;;5095132;28;20043;-65
2022/07/06 02:14:05;;;;;;;8.20;1.83;;;13.80;99.90;;;;;;5094587;28;20256;-65
2022/07/06 02:16:31;;;;;;;7.50;1.00;;;14.00;99.90;;;;;;5094465;28;20058;-65
2022/07/06 02:18:57;;;;;;;8.57;1.17;;;13.90;99.90;;;;;;5094480;28;20464;-66
2022/07/06 02:21:23;;;;;;;7.07;1.10;;;13.90;99.90;;;;;;5094461;28;20063;-64
2022/07/06 02:23:48;;;;;;;;;;;14.20;99.90;;;;;;5094853;28;20048;-66
2022/07/06 02:26:14;;;;;;;7.45;1.58;;;14.70;99.90;;;;;;5094093;28;19920;-65
2022/07/06 02:28:40;;;;;;;3.03;0.90;;;14.10;99.90;;;;;;5094204;28;20070;-64
2022/07/06 02:31:05;;;;;;;2.08;0.75;;;13.60;99.90;;;;;;5094412;28;20093;-64
2022/07/06 02:33:31;;;;;;;2.83;1.10;;;13.80;99.90;;;;;;5094501;28;20048;-64
2022/07/06 02:35:57;;;;;;;;;;;13.60;99.90;;;;;;5094643;28;20044;-64
2022/07/06 02:38:22;;;;;;;11.07;1.10;;;13.60;99.90;;;;;;5094201;28;19988;-64
2022/07/06 02:40:48;;;;;;;4.60;1.00;;;13.60;99.90;;;;;;5094138;28;20032;-65
2022/07/06 02:43:14;;;;;;;4.32;1.10;;;14.00;99.90;;;;;;5094112;28;20071;-66
2022/07/06 02:45:40;;;;;;;3.20;1.00;;;13.30;99.90;;;;;;5094042;28;20048;-65
2022/07/06 02:48:06;;;;;;;4.35;0.75;;;13.00;99.90;;;;;;5093961;28;20044;-64
2022/07/06 02:50:31;;;;;;;3.20;1.15;;;13.80;99.90;;;;;;5093852;28;20059;-65
2022/07/06 02:52:58;;;;;;;5.43;1.13;;;13.40;99.90;;;;;;5093832;28;20040;-64
2022/07/06 02:55:24;;;;;;;5.50;1.65;;;13.70;99.90;;;;;;5093801;28;20047;-64
2022/07/06 02:57:49;;;;;;;4.60;1.50;;;13.30;99.90;;;;;;5093758;28;20468;-66
2022/07/06 03:00:16;;;;;;;8.57;1.10;;;13.60;99.90;;;;;;5093725;28;20036;-64
2022/07/06 03:02:42;;;;;;;3.20;0.95;;;13.10;99.90;;;;;;5092130;28;20496;-64
2022/07/06 03:05:08;;;;;;;6.38;1.13;;;13.30;99.90;;;;;;5093469;28;20098;-64
2022/07/06 03:07:34;;;;;;;3.50;1.00;;;13.30;99.90;;;;;;5093576;28;20101;-63
2022/07/06 03:09:59;;;;;;;6.30;1.10;;;13.40;99.90;;;;;;5093467;28;20480;-64
2022/07/06 03:12:25;;;;;;;5.68;1.17;;;13.30;99.90;;;;;;5093437;28;20473;-64
2022/07/06 03:14:51;;;;;;;4.10;0.90;;;13.80;99.90;;;;;;5093415;28;20051;-64
2022/07/06 03:17:16;;;;;;;10.52;1.23;;;13.30;99.90;;;;;;5093422;28;20052;-66
2022/07/06 03:19:42;;;;;;;9.82;1.23;;;13.30;99.90;;;;;;5093321;28;20469;-64
2022/07/06 03:22:07;;;;;;;5.03;1.25;;;13.20;99.90;;;;;;5093263;28;20044;-64
2022/07/06 03:24:33;;;;;;;6.30;1.38;;;12.90;99.90;;;;;;5093279;28;20039;-64
2022/07/06 03:26:59;;;;;;;4.15;1.20;;;12.90;99.90;;;;;;5091994;28;20139;-64
2022/07/06 03:29:25;;;;;;;5.68;1.42;;;13.50;99.90;;;;;;5093062;28;20056;-65
2022/07/06 03:31:50;;;;;;;5.68;1.30;;;12.90;99.90;;;;;;5093112;28;20044;-64
2022/07/06 03:34:16;;;;;;;5.20;1.30;;;13.10;99.90;;;;;;5093044;28;20079;-65
2022/07/06 03:36:42;;;;;;;3.47;1.00;;;13.20;99.90;;;;;;5091743;28;20048;-64
2022/07/06 03:39:07;;;;;;;3.40;0.98;;;13.40;99.90;;;;;;5092925;28;20131;-64
2022/07/06 03:41:33;;;;;;;6.80;1.02;;;13.20;99.90;;;;;;5092948;28;20509;-65
2022/07/06 03:43:59;;;;;;;4.72;1.20;;;13.20;99.90;;;;;;5092891;28;20043;-64
2022/07/06 03:46:25;;;;;;;5.72;1.00;;;13.40;99.90;;;;;;5092861;28;20083;-67
2022/07/06 03:48:51;;;;;;;7.43;1.08;;;13.50;99.90;;;;;;5092843;28;20491;-64
2022/07/06 03:51:17;;;;;;;4.90;1.38;;;13.50;99.90;;;;;;5092663;28;20042;-64
2022/07/06 03:53:43;;;;;;;5.07;1.67;;;13.60;99.90;;;;;;5092803;28;20446;-64
2022/07/06 03:56:27;;;;;;;5.30;1.13;;;13.90;99.90;;;;;;5092358;28;20499;-63
2022/07/06 03:58:54;;;;;;;8.55;1.52;;;15.10;99.90;;;;;;5092659;28;20039;-64
2022/07/06 04:01:19;;;;;;;4.95;1.10;;;13.70;99.90;;;;;;5092545;28;20048;-64
2022/07/06 04:03:45;;;;;;;2.63;1.00;;;14.20;99.90;;;;;;5092596;28;20048;-64
2022/07/06 04:06:11;;;;;;;5.72;1.30;;;13.80;99.90;;;;;;5092500;28;20048;-62
2022/07/06 04:08:36;;;;;;;;;;;14.60;99.90;;;;;;5092653;28;20059;-64
2022/07/06 04:11:02;;;;;;;2.60;0.98;;;13.90;99.90;;;;;;5092308;28;20018;-64
2022/07/06 04:13:28;;;;;;;7.03;1.30;;;13.50;99.90;;;;;;5092160;28;20040;-64
2022/07/06 04:15:54;;;;;;;3.80;1.00;;;13.70;99.90;;;;;;5091930;28;20383;-64
2022/07/06 04:18:19;;;;;;;5.90;1.30;;;13.50;99.90;;;;;;5092379;28;20052;-64
2022/07/06 04:20:45;;;;;;;5.40;1.40;;;13.80;99.90;;;;;;5092385;28;20040;-66
2022/07/06 04:23:11;;;;;;;;;;;13.40;99.90;;;;;;5091725;28;20249;-65
2022/07/06 04:25:36;;;;;;;5.85;1.75;;;13.50;99.90;;;;;;5092559;28;20317;-64
2022/07/06 04:28:02;;;;;;;6.18;1.50;;;13.50;99.90;;;;;;5092583;28;20044;-64
2022/07/06 04:30:28;;;;;;;;;;;13.50;99.90;;;;;;5092657;28;20048;-64
2022/07/06 04:32:55;;;;;;;6.13;1.20;;;13.50;99.90;;;;;;5092500;28;20375;-64
2022/07/06 04:35:21;;;;;;;4.38;1.20;;;13.80;99.90;;;;;;5092071;28;20579;-64
2022/07/06 04:37:47;;;;;;;;;;;13.50;99.90;;;;;;5092527;28;20044;-64
2022/07/06 04:40:13;;;;;;;6.22;1.50;;;13.50;99.90;;;;;;5092106;28;20007;-64
2022/07/06 04:42:39;;;;;;;5.50;1.20;;;13.60;99.90;;;;;;5092144;28;20393;-64
2022/07/06 04:45:06;;;;;;;9.93;2.10;;;13.60;99.90;;;;;;5092082;28;20197;-64
2022/07/06 04:47:31;;;;;;;3.40;1.20;;;13.60;99.90;;;;;;5090735;28;20091;-66
2022/07/06 04:49:57;;;;;;;5.55;1.50;;;13.80;99.90;;;;;;5091962;28;20086;-64
2022/07/06 04:52:23;;;;;;;4.90;1.30;;;14.30;99.90;;;;;;5091942;28;20044;-64
2022/07/06 04:54:49;;;;;;;5.88;1.20;;;14.00;99.90;;;;;;5091979;28;20040;-64
2022/07/06 04:57:15;;;;;;;5.82;1.38;;;13.90;99.90;;;;;;5090607;28;20039;-64
2022/07/06 04:59:40;;;;;;;;;;;14.10;99.90;;;;;;5091915;28;20066;-64
2022/07/06 05:02:06;;;;;;;4.82;1.10;;;14.30;99.90;;;;;;5091788;28;19954;-65
2022/07/06 05:04:32;;;;;;;5.13;1.10;;;14.40;99.90;;;;;;5091836;28;20503;-64
2022/07/06 05:06:58;;;;;;;8.23;1.15;;;14.40;99.90;;;;;;5091784;28;20117;-64
2022/07/06 05:09:24;;;;;;;5.45;0.93;;;14.60;99.90;;;;;;5091682;28;20044;-64
2022/07/06 05:11:50;;;;;;;3.90;1.13;;;15.00;99.90;;;;;;5091823;28;20048;-64
2022/07/06 05:14:16;;;;;;;4.00;1.25;;;15.10;99.90;;;;;;5091482;28;20051;-64
2022/07/06 05:16:41;;;;;;;8.95;1.10;;;15.30;99.90;;;;;;5091725;28;20093;-65
2022/07/06 05:19:07;;;;;;;;;;;15.60;99.90;;;;;;5092148;28;20048;-64
2022/07/06 05:21:32;;;;;;;7.50;1.42;;;15.80;99.90;;;;;;5091698;28;19927;-64
2022/07/06 05:23:58;;;;;;;;;;;15.50;99.90;;;;;;5092092;28;20391;-64
2022/07/06 05:26:24;;;;;;;5.10;1.23;;;15.90;99.90;;;;;;5091657;28;19931;-66
2022/07/06 05:28:50;;;;;;;;;;;16.10;99.90;;;;;;5093574;28;20056;-64
2022/07/06 05:31:15;;;;;;;4.57;1.50;;;16.20;99.90;;;;;;5094961;28;19920;-65
2022/07/06 05:33:41;;;;;;;;;;;16.40;99.90;;;;;;5087519;28;20527;-67
2022/07/06 05:36:07;;;;;;;6.78;1.20;;;16.50;99.90;;;;;;5090544;28;20015;-65
2022/07/06 05:38:33;;;;;;;;;;;16.20;99.90;;;;;;5091550;28;20052;-65
2022/07/06 05:40:59;;;;;;;6.60;1.10;;;16.60;99.90;;;;;;5091345;28;20268;-65
2022/07/06 05:43:24;;;;;;;;;;;16.70;99.90;;;;;;5091863;28;20063;-66
2022/07/06 05:45:50;;;;;;;6.60;1.35;;;16.40;99.90;;;;;;5091270;28;20376;-67
2022/07/06 05:51:00;;;;;;;3.60;1.08;;;16.60;99.90;;;;;;5094622;28;19926;-65
2022/07/06 05:53:25;;;;;;;;;;;16.50;99.90;;;;;;5095434;28;20131;-65
2022/07/06 05:55:51;;;;;;;5.82;1.13;;;16.60;99.90;;;;;;5094486;28;19928;-66
2022/07/06 05:58:17;;;;;;;;;;;16.50;99.90;;;;;;5095378;28;20048;-63
2022/07/06 06:00:43;;;;;;;4.40;1.05;;;16.70;99.90;;;;;;5095157;28;20026;-66
2022/07/06 06:03:08;;;;;;;;;;;16.10;99.90;;;;;;5095265;28;20070;-66
2022/07/06 06:05:34;;;;;;;6.75;1.35;;;16.20;99.90;;;;;;5092580;28;19920;-65
2022/07/06 06:08:00;;;;;;;;;;;16.20;99.90;;;;;;5095240;28;20093;-65
2022/07/06 06:10:25;;;;;;;3.25;1.10;;;16.40;99.90;;;;;;5094105;28;19927;-65
2022/07/06 06:12:51;;;;;;;;;;;16.40;99.90;;;;;;5094612;28;20124;-66
2022/07/06 06:15:17;;;;;;;6.50;1.30;;;16.40;99.90;;;;;;5091350;28;19924;-66
2022/07/06 06:17:43;;;;;;;;;;;16.70;99.90;;;;;;5091566;28;20670;-65
2022/07/06 06:20:11;;;;;;;4.45;0.82;;;16.70;99.90;;;;;;5091369;28;19949;-62
2022/07/06 06:22:54;;;;;;;4.07;1.00;;;16.80;99.90;;;;;;5090712;28;20051;-68
2022/07/06 06:25:29;;;;;;;5.97;1.20;;;17.20;99.90;;;;;;5089988;28;20044;-66
2022/07/06 06:27:55;;;;;;;4.72;1.20;;;17.20;99.90;;;;;;5090034;28;20047;-65
2022/07/06 06:30:21;;;;;;;;;;;17.50;99.90;;;;;;5090525;28;20210;-65
2022/07/06 06:32:47;;;;;;;5.28;1.08;;;17.20;99.90;;;;;;5088791;28;20099;-69
2022/07/06 06:35:12;;;;;;;6.35;1.13;;;17.50;99.90;;;;;;5092780;28;20067;-66
2022/07/06 06:37:38;;;;;;;;;;;17.20;99.90;;;;;;5094427;28;20048;-65
2022/07/06 06:40:05;;;;;;;4.63;0.80;;;17.10;99.90;;;;;;5093582;28;19923;-65
2022/07/06 06:42:32;;;;;;;5.15;1.00;;;17.20;99.90;;;;;;5094059;28;20377;-65
2022/07/06 06:44:57;;;;;;;5.80;0.85;;;17.20;99.90;;;;;;5094034;28;20051;-65
2022/07/06 06:47:23;;;;;;;;;;;17.10;99.90;;;;;;5094465;28;20464;-66
2022/07/06 06:49:49;;;;;;;5.38;1.02;;;17.20;99.90;;;;;;5093891;28;20019;-65
2022/07/06 06:52:14;;;;;;;5.68;1.00;;;17.10;99.90;;;;;;5093908;28;20377;-65
2022/07/06 06:54:40;;;;;;;;;;;17.00;99.90;;;;;;5094261;28;20429;-64
2022/07/06 06:57:06;;;;;;;4.57;1.08;;;17.20;99.90;;;;;;5093820;28;19927;-64
2022/07/06 06:59:31;;;;;;;;;;;17.30;99.90;;;;;;5094144;28;20491;-64
2022/07/06 07:01:57;;;;;;;8.90;1.00;;;17.20;99.90;;;;;;5093710;28;20053;-64
2022/07/06 07:04:23;;;;;;;;;;;17.30;99.90;;;;;;5094045;28;20047;-65
2022/07/06 07:06:49;;;;;;;2.90;0.80;;;17.30;99.90;;;;;;5093573;28;19920;-65
2022/07/06 07:09:14;;;;;;;;;;;17.40;99.90;;;;;;5093821;28;20040;-66
2022/07/06 07:11:40;;;;;;;3.80;0.80;;;17.50;99.90;;;;;;5093446;28;19920;-64
2022/07/06 07:14:05;;;;;;;;;;;17.10;99.90;;;;;;5092652;28;20048;-65
2022/07/06 07:16:31;;;;;;;2.90;0.80;;;17.30;99.90;;;;;;5093463;28;19924;-62
2022/07/06 07:18:57;;;;;;;;;;;17.20;99.90;;;;;;5093838;28;20771;-65
2022/07/06 07:21:22;;;;;;;3.00;0.70;;;17.20;99.90;;;;;;5093386;28;19924;-66
2022/07/06 07:23:50;;;;;;;;;;;17.10;99.90;;;;;;5093712;28;20480;-60
2022/07/06 07:26:15;;;;;;;3.25;0.75;;;18.30;99.90;;;;;;5093288;28;20356;-66
2022/07/06 07:28:41;;;;;;;;;;;17.20;99.90;;;;;;5093110;28;20081;-64
2022/07/06 07:31:07;;;;;;;5.65;0.88;;;16.80;99.90;;;;;;5093128;28;19920;-64
2022/07/06 07:33:33;;;;;;;;;;;17.30;99.90;;;;;;5093527;28;20488;-65
2022/07/06 07:35:59;;;;;;;3.05;1.05;;;17.50;99.90;;;;;;5093032;28;19928;-65
2022/07/06 07:38:24;;;;;;;8.63;1.05;;;17.70;99.90;;;;;;5092704;28;20399;-63
2022/07/06 07:40:50;;;;;;;3.30;0.93;;;18.00;99.90;;;;;;5091716;28;20044;-64
2022/07/06 07:43:16;;;;;;;1.85;0.80;;;17.50;99.90;;;;;;5092909;28;20051;-64
2022/07/06 07:45:41;;;;;;;;;;;17.60;99.90;;;;;;5093031;28;20154;-65
2022/07/06 07:48:07;;;;;;;4.60;0.85;;;17.60;99.90;;;;;;5092849;28;19965;-64
2022/07/06 07:50:34;;;;;;;3.92;0.93;;;17.40;99.90;;;;;;5092139;28;20040;-66
2022/07/06 07:53:00;;;;;;;2.58;0.80;;;17.40;99.90;;;;;;5092549;28;20051;-64
2022/07/06 07:55:26;;;;;;;4.05;1.23;;;17.70;99.90;;;;;;5092666;28;20115;-64
2022/07/06 07:57:52;;;;;;;5.20;1.48;;;17.70;99.90;;;;;;5092681;28;20048;-64
2022/07/06 08:00:17;;;;;;;;;;;17.60;99.90;;;;;;5093056;28;20475;-65
2022/07/06 08:02:43;;;;;;;4.97;1.00;;;17.80;99.90;;;;;;5092640;28;19924;-67
2022/07/06 08:05:13;;;;;;;5.28;1.00;;;17.60;99.90;;;;;;5092610;28;20070;-65
2022/07/06 08:07:38;;;;;;;5.93;1.05;;;17.60;99.90;;;;;;5092556;28;20161;-64
2022/07/06 08:10:04;;;;;;;3.55;0.98;;;17.70;99.90;;;;;;5092397;28;20130;-64
2022/07/06 08:12:30;;;;;;;;;;;17.50;99.90;;;;;;5092922;28;20086;-64
2022/07/06 08:14:55;;;;;;;16.25;2.00;;;17.80;99.90;;;;;;5092661;28;20072;-64
2022/07/06 08:17:21;;;;;;;4.60;0.73;;;18.00;99.90;;;;;;5092588;28;20109;-63
2022/07/06 08:19:47;;;;;;;4.53;1.20;;;18.10;99.90;;;;;;5092371;28;20426;-64
2022/07/06 08:22:12;;;;;;;4.40;1.00;;;18.10;99.90;;;;;;5091008;28;20048;-63
2022/07/06 08:24:38;;;;;;;;;;;18.00;99.90;;;;;;5092386;28;20048;-63
2022/07/06 08:27:04;;;;;;;5.53;0.95;;;18.10;99.90;;;;;;5092547;28;19977;-64
2022/07/06 08:29:30;;;;;;;6.18;1.30;;;18.10;99.90;;;;;;5090683;28;20052;-65
2022/07/06 08:31:56;;;;;;;2.00;0.88;;;17.90;99.90;;;;;;5092083;28;20084;-63
2022/07/06 08:34:22;;;;;;;4.80;0.80;;;17.60;99.90;;;;;;5090986;28;20086;-64
2022/07/06 08:36:48;;;;;;;3.50;1.00;;;17.50;99.90;;;;;;5092158;28;20094;-64
2022/07/06 08:39:13;;;;;;;5.75;0.98;;;17.60;99.90;;;;;;5091839;28;20475;-65
2022/07/06 08:41:41;;;;;;;5.20;0.95;;;17.70;99.90;;;;;;5090785;28;20138;-66
2022/07/06 08:44:08;;;;;;;4.20;0.95;;;17.90;99.90;;;;;;5091987;28;20111;-64
2022/07/06 08:46:37;;;;;;;3.97;1.10;;;18.00;99.90;;;;;;5091926;28;20048;-65
2022/07/06 08:49:04;;;;;;;5.05;1.10;;;18.00;99.90;;;;;;5091946;28;20070;-64
2022/07/06 08:51:30;;;;;;;3.78;0.80;;;18.00;99.90;;;;;;5091900;28;20048;-64
2022/07/06 08:53:57;;;;;;;4.18;1.02;;;18.20;99.90;;;;;;5090603;28;20088;-64
2022/07/06 08:56:23;;;;;;;3.47;0.80;;;18.30;99.90;;;;;;5092127;28;20097;-63
2022/07/06 08:58:49;;;;;;;1.45;0.70;;;18.40;99.90;;;;;;5091970;28;20059;-66
2022/07/06 09:01:16;;;;;;;4.22;0.90;;;18.50;99.90;;;;;;5091842;28;20050;-64
2022/07/06 09:03:45;;;;;;;2.75;0.93;;;18.60;99.90;;;;;;5095060;28;20055;-64
2022/07/06 09:06:16;;;;;;;4.53;1.00;;;19.00;99.90;;;;;;5095966;28;20128;-63
2022/07/06 09:08:44;;;;;;;6.90;1.05;;;18.30;99.90;;;;;;5095972;28;20373;-64
2022/07/06 09:11:09;;;;;;;1.67;0.75;;;18.70;99.90;;;;;;5095785;28;20507;-64
2022/07/06 09:13:35;;;;;;;5.03;1.17;;;18.90;99.90;;;;;;5095827;28;20044;-64
2022/07/06 09:16:12;;;;;;;4.07;0.95;;;19.20;99.90;;;;;;5095776;28;20377;-63
2022/07/06 09:18:39;;;;;;;6.43;1.55;;;19.40;99.90;;;;;;5095659;28;20040;-64
2022/07/06 09:21:05;;;;;;;4.72;1.00;;;19.50;99.90;;;;;;5095592;28;20127;-64
2022/07/06 09:23:31;;;;;;;6.15;1.27;;;19.60;99.90;;;;;;5095617;28;20075;-63
2022/07/06 09:25:57;;;;;;;6.97;0.98;;;19.40;99.90;;;;;;5095552;28;20048;-66
2022/07/06 09:28:39;;;;;;;4.53;1.02;;;19.00;99.90;;;;;;5094241;28;20048;-63
2022/07/06 09:31:08;;;;;;;2.88;0.93;;;18.90;99.90;;;;;;5095378;28;20056;-63
2022/07/06 09:33:35;;;;;;;1.70;1.10;;;18.60;99.90;;;;;;5107634;28;20043;-65
2022/07/06 09:36:02;;;;;;;4.13;1.10;;;18.60;99.90;;;;;;5114579;28;20518;-64
2022/07/06 09:38:28;;;;;;;6.00;2.08;;;18.50;99.90;;;;;;5115642;28;20044;-63
2022/07/06 09:40:54;;;;;;;2.92;0.80;;;18.80;99.90;;;;;;5115641;28;20126;-63
2022/07/06 09:43:22;;;;;;;6.30;1.10;;;18.40;99.90;;;;;;5115640;28;20131;-64
2022/07/06 09:45:52;;;;;;;5.40;1.10;;;18.90;99.90;;;;;;5115297;28;20442;-63
2022/07/06 09:48:22;;;;;;;3.60;1.40;;;18.50;99.90;;;;;;5115514;28;20053;-64
2022/07/06 09:50:50;;;;;;;9.18;1.20;;;18.70;99.90;;;;;;5115399;28;20054;-63
2022/07/06 09:53:17;;;;;;;4.25;1.52;;;19.30;99.90;;;;;;5115495;28;20364;-63
2022/07/06 09:55:44;;;;;;;6.53;1.10;;;19.30;99.90;;;;;;5115351;28;20088;-63
2022/07/06 09:58:10;;;;;;;2.42;0.95;;;19.30;99.90;;;;;;5115354;28;20065;-64
2022/07/06 10:00:36;;;;;;;7.22;1.52;;;19.50;99.90;;;;;;5115278;28;20039;-63
2022/07/06 10:03:02;;;;;;;3.80;1.10;;;19.70;99.90;;;;;;5114937;28;20058;-63
2022/07/06 10:05:29;;;;;;;2.97;1.00;;;19.50;99.90;;;;;;5115342;28;20130;-63
2022/07/06 10:08:00;;;;;;;3.65;1.25;;;19.90;99.90;;;;;;5115250;28;20077;-65
2022/07/06 10:10:29;;;;;;;2.92;0.93;;;20.00;99.90;;;;;;5115462;28;20042;-63
2022/07/06 10:12:59;;;;;;;6.60;1.10;;;19.80;99.90;;;;;;5115169;28;20539;-65
2022/07/06 10:15:27;;;;;;;2.35;1.00;;;19.70;99.90;;;;;;5114147;28;20047;-67
2022/07/06 10:17:54;;;;;;;4.95;0.90;;;19.90;99.90;;;;;;5115000;28;20036;-63
2022/07/06 10:20:21;;;;;;;4.45;1.05;;;20.30;99.90;;;;;;5114987;28;20048;-65
2022/07/06 10:22:50;;;;;;;5.32;0.90;;;20.60;99.90;;;;;;5114948;27;20050;-64
2022/07/06 10:25:19;;;;;;;3.20;1.00;;;20.20;99.90;;;;;;5114814;28;20101;-64
2022/07/06 10:27:47;;;;;;;1.92;0.80;;;20.00;99.90;;;;;;5113525;28;20050;-64
2022/07/06 10:30:14;;;;;;;1.30;0.80;;;20.00;99.90;;;;;;5114625;28;20437;-64
2022/07/06 10:32:43;;;;;;;2.63;0.90;;;19.90;99.90;;;;;;5114717;28;20052;-66
2022/07/06 10:35:09;;;;;;;1.42;0.88;;;20.00;99.90;;;;;;5113299;28;20122;-64
2022/07/06 10:37:35;;;;;;;2.70;0.90;;;20.10;99.90;;;;;;5114601;28;20100;-64
2022/07/06 10:42:51;;;;;;;1.77;0.80;;;20.30;99.90;;;;;;5114571;28;20054;-65
2022/07/06 10:45:46;;;;;;;3.63;0.90;;;20.60;99.90;;;;;;5114548;28;20051;-63
2022/07/06 10:48:11;;;;;;;2.25;0.80;;;20.40;99.90;;;;;;5114286;28;20055;-65
2022/07/06 10:50:47;;;;;;;1.52;0.70;;;20.30;99.90;;;;;;5114329;28;20399;-63
2022/07/06 10:53:13;;;;;;;2.15;0.85;;;20.50;99.90;;;;;;5114411;28;20388;-64
2022/07/06 10:55:47;;;;;;;2.25;0.85;;;20.70;99.90;;;;;;5114333;28;20122;-63
2022/07/06 10:58:14;;;;;;;2.95;0.93;;;21.00;99.90;;;;;;5114293;28;20058;-64
2022/07/06 11:00:53;;;;;;;3.13;0.88;;;21.10;99.90;;;;;;5114217;27;20139;-63
2022/07/06 11:03:44;;;;;;;9.43;2.08;;;21.00;99.90;;;;;;5114131;28;20035;-63
2022/07/06 11:06:21;;;;;;;1.65;0.70;;;20.40;99.90;;;;;;5113113;28;20047;-63
2022/07/06 11:08:50;;;;;;;4.72;1.10;;;20.30;99.90;;;;;;5114104;28;20052;-64
2022/07/06 11:11:19;;;;;;;3.25;1.25;;;20.70;99.90;;;;;;5113889;28;20105;-65
2022/07/06 11:13:58;;;;;;;4.80;0.73;;;20.80;99.90;;;;;;5113923;28;20051;-66
2022/07/06 11:16:26;;;;;;;3.30;0.90;;;21.00;99.90;;;;;;5113879;28;20047;-65
2022/07/06 11:19:05;;;;;;;2.80;1.08;;;21.00;99.90;;;;;;5113848;28;20054;-64
2022/07/06 11:21:43;;;;;;;2.85;0.70;;;21.00;99.90;;;;;;5113468;28;20503;-63
2022/07/06 11:24:12;;;;;;;6.53;1.10;;;21.30;99.90;;;;;;5113700;28;20051;-66
2022/07/06 11:26:38;;;;;;;3.08;0.98;;;21.10;99.90;;;;;;5113640;28;20499;-63
2022/07/06 11:29:08;;;;;;;5.30;1.20;;;21.40;99.90;;;;;;5113636;28;20045;-63
2022/07/06 11:31:36;;;;;;;3.10;1.00;;;21.40;99.90;;;;;;5112241;28;20043;-66
2022/07/06 11:34:04;;;;;;;2.80;0.90;;;22.00;99.90;;;;;;5113171;28;20515;-64
2022/07/06 11:36:30;;;;;;;2.78;1.10;;;21.80;99.90;;;;;;5112453;28;20432;-65
2022/07/06 11:38:55;;;;;;;5.78;0.90;;;22.00;99.90;;;;;;5113451;28;20091;-64
2022/07/06 11:41:21;;;;;;;3.05;0.90;;;22.20;99.90;;;;;;5113459;28;20082;-64
2022/07/06 11:43:50;;;;;;;2.90;0.90;;;21.70;99.90;;;;;;5112057;28;20126;-64
2022/07/06 11:46:33;;;;;;;2.78;1.02;;;21.20;99.90;;;;;;5113201;28;20087;-63
2022/07/06 11:49:05;;;;;;;2.00;0.70;;;20.80;99.90;;;;;;5113261;28;20061;-63
2022/07/06 11:51:36;;;;;;;4.10;1.17;;;20.20;99.90;;;;;;5113181;28;20039;-64
2022/07/06 11:54:17;;;;;;;2.22;1.00;;;20.70;99.90;;;;;;5113188;28;20083;-64
2022/07/06 11:56:47;;;;;;;3.25;0.85;;;20.50;99.90;;;;;;5113548;28;20050;-64
2022/07/06 11:59:15;;;;;;;2.03;1.00;;;20.80;99.90;;;;;;5113048;28;20035;-64
2022/07/06 12:01:43;;;;;;;3.67;1.00;;;20.90;99.90;;;;;;5113127;28;20441;-68
2022/07/06 12:04:10;;;;;;;2.88;1.00;;;21.30;99.90;;;;;;5113229;28;20043;-64
2022/07/06 12:06:36;;;;;;;3.97;1.27;;;20.90;99.90;;;;;;5113115;28;20150;-65
2022/07/06 12:09:04;;;;;;;5.30;1.05;;;20.30;99.90;;;;;;5112922;28;20543;-65
2022/07/06 12:11:34;;;;;;;4.53;1.30;;;20.60;99.90;;;;;;5111532;28;20048;-65
2022/07/06 12:14:17;;;;;;;5.40;0.93;;;20.90;99.90;;;;;;5112833;28;20040;-63
2022/07/06 12:16:43;;;;;;;1.77;0.95;;;20.20;99.90;;;;;;5112877;28;20043;-64
2022/07/06 12:19:11;;;;;;;2.92;0.75;;;20.30;99.90;;;;;;5112687;28;20044;-63
2022/07/06 12:21:46;;;;;;;4.72;1.00;;;20.40;99.90;;;;;;5112720;28;20047;-64
2022/07/06 12:24:21;;;;;;;4.63;1.10;;;20.80;99.90;;;;;;5112725;28;20051;-66
2022/07/06 12:26:48;;;;;;;7.95;1.20;;;21.00;99.90;;;;;;5112664;28;20047;-65
2022/07/06 12:29:14;;;;;;;2.38;0.90;;;20.90;99.90;;;;;;5112291;28;20055;-64
2022/07/06 12:31:54;;;;;;;1.92;0.75;;;21.20;99.90;;;;;;5112540;28;20040;-65
2022/07/06 12:34:20;;;;;;;4.85;1.42;;;21.00;99.90;;;;;;5112535;28;20047;-65
2022/07/06 12:36:53;;;;;;;4.70;1.10;;;20.40;99.90;;;;;;5112091;28;20050;-64
2022/07/06 12:39:24;;;;;;;10.27;1.55;;;20.60;99.90;;;;;;5112412;28;20047;-65
2022/07/06 12:42:02;;;;;;;3.38;1.10;;;20.70;99.90;;;;;;5112512;28;20039;-64
2022/07/06 12:44:28;;;;;;;1.80;0.82;;;20.50;99.90;;;;;;5112416;28;20039;-64
2022/07/06 12:47:06;;;;;;;3.70;1.00;;;20.00;99.90;;;;;;5111353;28;20093;-65
2022/07/06 12:49:33;;;;;;;4.30;1.08;;;20.20;99.90;;;;;;5111130;28;20052;-65
2022/07/06 12:52:09;;;;;;;3.10;1.00;;;19.80;99.90;;;;;;5112049;28;20403;-67
2022/07/06 12:54:43;;;;;;;4.18;1.15;;;19.80;99.90;;;;;;5112433;28;20465;-65
2022/07/06 12:57:15;;;;;;;2.72;0.98;;;20.00;99.90;;;;;;5112377;28;20044;-64
2022/07/06 12:59:57;;;;;;;4.13;0.90;;;19.80;99.90;;;;;;5112306;28;20156;-64
2022/07/06 13:02:36;;;;;;;3.20;1.08;;;19.80;99.90;;;;;;5111010;28;20108;-64
2022/07/06 13:05:05;;;;;;;4.82;1.30;;;20.00;99.90;;;;;;5112199;28;20054;-64